Time;durP1;ratioP1;P1;durP2;ratioP2;P2;SDS_P1;SDS_P2;PMS_P1;PMS_P2;Temp;Humidity;BMP_temperature;BMP_pressure;BME280_temperature;BME280_humidity;BME280_pressure;Samples;Min_cycle;Max_cycle;Signal;HPM_P1;HPM_P2
2022/04/13 00:00:58;;;;;;;7.17;7.00;;;23.70;48.20;;;;;;5052337;28;20476;-50
2022/04/13 00:03:26;;;;;;;7.80;7.60;;;23.70;48.20;;;;;;5051927;28;20444;-49
2022/04/13 00:05:55;;;;;;;7.00;6.83;;;23.70;48.30;;;;;;5051665;28;20816;-50
2022/04/13 00:08:22;;;;;;;6.90;6.70;;;23.70;48.30;;;;;;5051265;28;20531;-50
2022/04/13 00:10:49;;;;;;;6.63;6.53;;;23.70;48.40;;;;;;5051587;28;20464;-50
2022/04/13 00:13:15;;;;;;;6.77;6.57;;;23.70;48.40;;;;;;5051522;28;20455;-49
2022/04/13 00:15:42;;;;;;;6.90;6.70;;;23.60;48.40;;;;;;5051211;28;20491;-49
2022/04/13 00:18:09;;;;;;;7.27;7.07;;;23.60;48.50;;;;;;5051505;28;20470;-49
2022/04/13 00:20:38;;;;;;;6.93;6.77;;;23.60;48.50;;;;;;5051553;28;20463;-50
2022/04/13 00:23:06;;;;;;;7.00;6.80;;;23.60;48.60;;;;;;5051484;28;20451;-48
2022/04/13 00:25:33;;;;;;;7.43;7.23;;;23.50;48.50;;;;;;5051291;28;20781;-50
2022/04/13 00:28:00;;;;;;;6.97;6.87;;;23.50;48.60;;;;;;5051102;28;20451;-51
2022/04/13 00:30:27;;;;;;;7.00;6.80;;;23.50;48.60;;;;;;5051313;28;20475;-49
2022/04/13 00:32:54;;;;;;;6.57;6.47;;;23.50;48.60;;;;;;5051431;28;20449;-50
2022/04/13 00:35:21;;;;;;;7.30;7.10;;;23.50;48.70;;;;;;5053991;28;20486;-49
2022/04/13 00:37:49;;;;;;;7.00;6.80;;;23.60;48.60;;;;;;5054461;28;20978;-49
2022/04/13 00:40:16;;;;;;;7.17;7.07;;;23.70;48.40;;;;;;5055361;28;20444;-49
2022/04/13 00:42:42;;;;;;;7.60;7.30;;;23.80;48.30;;;;;;5055439;28;20448;-49
2022/04/13 00:45:10;;;;;;;7.23;7.03;;;23.80;48.10;;;;;;5055433;28;20437;-51
2022/04/13 00:47:40;;;;;;;7.23;7.03;;;23.90;48.00;;;;;;5055324;28;20451;-51
2022/04/13 00:50:08;;;;;;;7.10;6.90;;;23.90;47.90;;;;;;5055289;28;20452;-49
2022/04/13 00:52:37;;;;;;;7.00;6.90;;;23.90;47.90;;;;;;5055426;28;20455;-49
2022/04/13 00:55:08;;;;;;;7.17;7.03;;;23.90;47.80;;;;;;5055108;28;20476;-49
2022/04/13 00:57:37;;;;;;;6.90;6.70;;;23.90;47.80;;;;;;5054802;28;21073;-49
2022/04/13 01:00:06;;;;;;;7.07;6.87;;;23.90;47.80;;;;;;5054888;28;20531;-49
2022/04/13 01:02:36;;;;;;;7.20;7.03;;;23.90;47.80;;;;;;5055161;28;20785;-49
2022/04/13 01:05:05;;;;;;;7.20;7.00;;;23.90;47.70;;;;;;5055021;28;20445;-49
2022/04/13 01:07:32;;;;;;;7.40;7.20;;;23.90;47.80;;;;;;5054851;28;20440;-49
2022/04/13 01:10:00;;;;;;;7.37;7.17;;;23.90;47.70;;;;;;5055052;28;20807;-49
2022/04/13 01:12:28;;;;;;;7.20;7.10;;;23.90;47.80;;;;;;5055163;28;20933;-50
2022/04/13 01:14:55;;;;;;;7.03;6.90;;;23.90;47.80;;;;;;5054706;28;21050;-50
2022/04/13 01:17:23;;;;;;;8.10;7.90;;;23.90;47.80;;;;;;5054677;28;20455;-51
2022/04/13 01:19:49;;;;;;;7.20;7.10;;;23.90;47.90;;;;;;5054769;28;20444;-48
2022/04/13 01:22:19;;;;;;;7.37;7.27;;;23.90;47.90;;;;;;5054822;28;20468;-50
2022/04/13 01:24:46;;;;;;;7.50;7.30;;;23.90;47.90;;;;;;5054468;28;20451;-49
2022/04/13 01:27:15;;;;;;;7.50;7.30;;;23.80;47.90;;;;;;5054596;28;20448;-52
2022/04/13 01:29:42;;;;;;;7.00;6.90;;;23.80;47.90;;;;;;5054800;28;20440;-49
2022/04/13 01:32:09;;;;;;;7.00;6.90;;;23.80;48.00;;;;;;5054730;28;20525;-49
2022/04/13 01:34:36;;;;;;;7.47;7.27;;;23.80;48.00;;;;;;5054294;28;20913;-49
2022/04/13 01:37:03;;;;;;;7.40;7.10;;;23.80;48.00;;;;;;5054417;28;20444;-49
2022/04/13 01:39:31;;;;;;;7.43;7.23;;;23.80;48.10;;;;;;5054498;28;20452;-49
2022/04/13 01:41:58;;;;;;;7.57;7.37;;;23.80;48.20;;;;;;5054654;28;20468;-49
2022/04/13 01:44:25;;;;;;;7.30;7.10;;;23.80;48.20;;;;;;5053927;28;21069;-49
2022/04/13 01:46:52;;;;;;;7.20;7.00;;;23.70;48.10;;;;;;5053262;28;20444;-50
2022/04/13 01:49:18;;;;;;;7.10;6.90;;;23.70;48.20;;;;;;5054371;28;20444;-49
2022/04/13 01:51:45;;;;;;;7.87;7.67;;;23.70;48.20;;;;;;5054381;28;20483;-50
2022/04/13 01:54:12;;;;;;;7.43;7.23;;;23.70;48.30;;;;;;5054046;28;20444;-49
2022/04/13 01:56:40;;;;;;;7.03;6.83;;;23.70;48.30;;;;;;5053910;28;20480;-49
2022/04/13 01:59:07;;;;;;;7.17;7.07;;;23.70;48.30;;;;;;5054119;28;20456;-49
2022/04/13 02:01:35;;;;;;;7.40;7.23;;;23.70;48.30;;;;;;5054209;28;20471;-49
2022/04/13 02:04:02;;;;;;;7.60;7.40;;;23.60;48.30;;;;;;5053694;28;20455;-49
2022/04/13 02:06:29;;;;;;;7.73;7.53;;;23.60;48.30;;;;;;5053901;28;20799;-49
2022/04/13 02:08:56;;;;;;;7.30;7.13;;;23.60;48.40;;;;;;5053965;28;20825;-49
2022/04/13 02:11:23;;;;;;;7.30;7.10;;;23.60;48.50;;;;;;5053477;28;20986;-49
2022/04/13 02:13:51;;;;;;;7.73;7.53;;;23.60;48.50;;;;;;5053906;28;20444;-49
2022/04/13 02:16:18;;;;;;;7.30;7.10;;;23.60;48.50;;;;;;5053724;28;20484;-50
2022/04/13 02:18:44;;;;;;;7.30;7.13;;;23.50;48.50;;;;;;5053875;28;20444;-49
2022/04/13 02:21:11;;;;;;;7.73;7.43;;;23.50;48.50;;;;;;5053454;28;20918;-50
2022/04/13 02:23:38;;;;;;;7.77;7.57;;;23.50;48.60;;;;;;5053654;28;20448;-49
2022/04/13 02:26:04;;;;;;;7.27;7.13;;;23.50;48.60;;;;;;5053918;28;20808;-49
2022/04/13 02:28:31;;;;;;;7.40;7.30;;;23.50;49.10;;;;;;5053610;28;20455;-49
2022/04/13 02:30:59;;;;;;;8.63;8.33;;;23.40;48.60;;;;;;5053612;28;20517;-49
2022/04/13 02:33:26;;;;;;;7.70;7.50;;;23.40;48.60;;;;;;5053186;28;20955;-49
2022/04/13 02:35:54;;;;;;;7.77;7.57;;;23.40;48.60;;;;;;5053135;28;20480;-50
2022/04/13 02:38:20;;;;;;;7.50;7.30;;;23.40;48.70;;;;;;5053582;28;20488;-49
2022/04/13 02:40:47;;;;;;;7.80;7.50;;;23.40;48.80;;;;;;5053275;28;20464;-48
2022/04/13 02:43:14;;;;;;;7.50;7.30;;;23.40;48.80;;;;;;5052761;28;20452;-49
2022/04/13 02:45:41;;;;;;;7.90;7.70;;;23.50;48.70;;;;;;5053169;28;20440;-49
2022/04/13 02:48:09;;;;;;;7.80;7.60;;;23.60;48.50;;;;;;5053101;28;20448;-51
2022/04/13 02:50:36;;;;;;;8.50;8.20;;;23.70;48.30;;;;;;5052984;28;20475;-49
2022/04/13 02:53:03;;;;;;;7.70;7.50;;;23.70;48.10;;;;;;5052485;28;20986;-49
2022/04/13 02:55:30;;;;;;;7.60;7.40;;;23.80;48.10;;;;;;5052866;28;20487;-51
2022/04/13 02:57:57;;;;;;;7.40;7.20;;;23.80;48.10;;;;;;5052894;28;20448;-49
2022/04/13 03:00:24;;;;;;;8.00;7.80;;;23.80;48.00;;;;;;5052918;28;20476;-50
2022/04/13 03:02:50;;;;;;;7.73;7.43;;;23.80;48.00;;;;;;5052601;28;20448;-50
2022/04/13 03:05:18;;;;;;;7.60;7.40;;;23.80;48.00;;;;;;5052531;28;20440;-49
2022/04/13 03:07:45;;;;;;;8.10;7.70;;;23.80;48.00;;;;;;5052784;28;20459;-49
2022/04/13 03:10:12;;;;;;;7.83;7.63;;;23.80;48.00;;;;;;5052714;28;20448;-51
2022/04/13 03:12:39;;;;;;;7.93;7.73;;;23.80;48.00;;;;;;5052690;28;20452;-52
2022/04/13 03:15:06;;;;;;;8.03;7.83;;;23.80;47.90;;;;;;5052505;28;20846;-50
2022/04/13 03:17:33;;;;;;;8.00;7.80;;;23.80;47.80;;;;;;5052514;28;20449;-51
2022/04/13 03:20:00;;;;;;;8.17;7.97;;;23.80;47.80;;;;;;5052477;28;20911;-49
2022/04/13 03:22:28;;;;;;;7.70;7.50;;;23.80;47.80;;;;;;5052312;28;20449;-49
2022/04/13 03:24:55;;;;;;;7.53;7.33;;;23.90;47.90;;;;;;5052659;28;20510;-49
2022/04/13 03:27:22;;;;;;;8.40;8.10;;;23.90;47.90;;;;;;5052133;28;20449;-49
2022/04/13 03:29:49;;;;;;;7.80;7.60;;;23.80;47.70;;;;;;5052688;28;20445;-51
2022/04/13 03:32:16;;;;;;;7.53;7.33;;;23.80;47.80;;;;;;5051984;28;20473;-49
2022/04/13 03:34:42;;;;;;;7.60;7.40;;;23.80;47.80;;;;;;5052407;28;20976;-52
2022/04/13 03:37:09;;;;;;;7.60;7.40;;;23.80;47.80;;;;;;5052090;28;20484;-49
2022/04/13 03:39:37;;;;;;;7.53;7.33;;;23.80;47.80;;;;;;5052356;28;20440;-49
2022/04/13 03:42:05;;;;;;;7.33;7.23;;;23.80;47.80;;;;;;5051905;28;20975;-49
2022/04/13 03:44:31;;;;;;;8.40;8.10;;;23.80;47.80;;;;;;5052208;28;20444;-49
2022/04/13 03:46:58;;;;;;;7.90;7.70;;;23.80;47.80;;;;;;5051843;28;20447;-49
2022/04/13 03:49:25;;;;;;;8.00;7.80;;;23.80;47.80;;;;;;5052452;28;20952;-51
2022/04/13 03:51:52;;;;;;;8.00;7.80;;;23.80;47.80;;;;;;5051663;28;20541;-48
2022/04/13 03:54:18;;;;;;;7.67;7.37;;;23.80;47.80;;;;;;5052006;28;20818;-49
2022/04/13 03:56:46;;;;;;;7.60;7.47;;;23.70;47.80;;;;;;5051566;28;20507;-51
2022/04/13 03:59:13;;;;;;;8.07;7.87;;;23.70;47.80;;;;;;5051917;28;20441;-50
2022/04/13 04:01:40;;;;;;;8.53;8.33;;;23.70;47.90;;;;;;5051316;28;20990;-49
2022/04/13 04:04:08;;;;;;;8.57;8.37;;;23.80;47.90;;;;;;5051494;28;20445;-49
2022/04/13 04:06:35;;;;;;;8.43;8.23;;;23.90;47.70;;;;;;5051663;28;21001;-49
2022/04/13 04:09:01;;;;;;;8.53;8.23;;;24.00;47.70;;;;;;5051460;28;20455;-48
2022/04/13 04:11:28;;;;;;;8.77;8.53;;;24.00;47.70;;;;;;5051566;28;20491;-49
2022/04/13 04:13:56;;;;;;;8.60;8.40;;;24.10;47.70;;;;;;5051500;28;20543;-49
2022/04/13 04:16:23;;;;;;;8.90;8.70;;;24.10;47.70;;;;;;5051330;28;20475;-49
2022/04/13 04:18:50;;;;;;;8.50;8.30;;;24.10;47.70;;;;;;5051301;28;20455;-51
2022/04/13 04:21:17;;;;;;;8.23;8.03;;;24.20;47.70;;;;;;5051455;28;20979;-48
2022/04/13 04:23:44;;;;;;;8.90;8.70;;;24.20;47.50;;;;;;5051135;28;20514;-48
2022/04/13 04:26:11;;;;;;;8.60;8.30;;;24.30;47.40;;;;;;5051233;28;20449;-48
2022/04/13 04:28:38;;;;;;;8.30;8.10;;;24.40;47.40;;;;;;5051347;28;20467;-48
2022/04/13 04:31:06;;;;;;;7.93;7.77;;;24.40;47.30;;;;;;5051245;28;21053;-48
2022/04/13 04:33:33;;;;;;;8.30;8.10;;;24.50;47.30;;;;;;5051289;28;20444;-49
2022/04/13 04:36:00;;;;;;;8.03;7.80;;;24.50;47.20;;;;;;5051183;28;20480;-48
2022/04/13 04:38:30;;;;;;;9.80;8.93;;;24.50;47.30;;;;;;5051263;28;20456;-56
2022/04/13 04:40:57;;;;;;;10.00;9.30;;;24.50;47.70;;;;;;5051298;28;20464;-49
2022/04/13 04:43:24;;;;;;;10.63;10.23;;;24.50;48.30;;;;;;5050889;28;20451;-53
2022/04/13 04:45:51;;;;;;;9.60;9.10;;;24.50;48.50;;;;;;5049221;28;20440;-52
2022/04/13 04:48:19;;;;;;;10.13;9.73;;;24.50;47.90;;;;;;5050972;28;20444;-50
2022/04/13 04:50:45;;;;;;;9.93;9.30;;;24.50;47.20;;;;;;5051080;28;20972;-49
2022/04/13 04:53:12;;;;;;;10.40;9.70;;;24.50;46.70;;;;;;5051108;28;20440;-49
2022/04/13 04:55:39;;;;;;;10.63;10.00;;;24.50;46.30;;;;;;5050891;28;20437;-50
2022/04/13 04:58:09;;;;;;;10.83;10.00;;;24.50;46.20;;;;;;5051051;28;20890;-50
2022/04/13 05:00:36;;;;;;;10.03;9.53;;;24.50;46.00;;;;;;5050947;28;20565;-49
2022/04/13 05:03:03;;;;;;;11.23;10.73;;;24.40;45.80;;;;;;5051010;28;20455;-52
2022/04/13 05:05:32;;;;;;;10.43;9.93;;;24.40;45.70;;;;;;5050881;28;20444;-50
2022/04/13 05:07:58;;;;;;;10.97;10.40;;;24.30;45.60;;;;;;5050905;28;20444;-49
2022/04/13 05:10:25;;;;;;;10.60;10.07;;;24.30;45.60;;;;;;5050955;28;20467;-56
2022/04/13 05:12:56;;;;;;;11.00;10.40;;;24.30;45.50;;;;;;5051026;28;20456;-51
2022/04/13 05:15:23;;;;;;;10.83;10.20;;;24.20;45.40;;;;;;5050956;28;20448;-53
2022/04/13 05:17:50;;;;;;;11.97;11.27;;;24.20;45.50;;;;;;5050795;28;20483;-52
2022/04/13 05:20:17;;;;;;;11.07;10.30;;;24.10;45.40;;;;;;5050794;28;20940;-49
2022/04/13 05:22:45;;;;;;;9.83;9.43;;;24.10;45.40;;;;;;5053858;28;20451;-51
2022/04/13 05:25:14;;;;;;;10.07;9.70;;;24.00;45.40;;;;;;5054543;28;20441;-52
2022/04/13 05:27:41;;;;;;;10.40;9.93;;;24.00;45.50;;;;;;5054827;28;20539;-49
2022/04/13 05:30:10;;;;;;;9.97;9.67;;;23.90;45.50;;;;;;5054704;28;20448;-50
2022/04/13 05:32:48;;;;;;;11.30;10.77;;;23.80;45.50;;;;;;5054578;28;20518;-50
2022/04/13 05:35:14;;;;;;;11.00;10.53;;;23.80;45.50;;;;;;5054452;28;20489;-49
2022/04/13 05:37:41;;;;;;;11.00;10.60;;;23.80;45.60;;;;;;5054128;28;20854;-52
2022/04/13 05:40:10;;;;;;;10.47;10.00;;;23.70;45.60;;;;;;5054235;28;20946;-51
2022/04/13 05:42:37;;;;;;;10.83;10.40;;;23.60;45.70;;;;;;5054273;28;20455;-49
2022/04/13 05:45:04;;;;;;;11.10;10.60;;;23.60;45.70;;;;;;5054220;28;20455;-49
2022/04/13 05:47:31;;;;;;;12.20;11.40;;;23.60;45.80;;;;;;5054121;28;20811;-52
2022/04/13 05:49:58;;;;;;;10.60;10.00;;;23.50;45.80;;;;;;5054273;28;20866;-52
2022/04/13 05:52:24;;;;;;;11.03;10.60;;;23.40;46.00;;;;;;5053887;28;20476;-50
2022/04/13 05:54:51;;;;;;;10.83;10.27;;;23.40;46.20;;;;;;5054144;28;20950;-49
2022/04/13 05:57:19;;;;;;;10.87;10.37;;;23.40;46.30;;;;;;5053930;28;20507;-49
2022/04/13 05:59:46;;;;;;;10.60;10.20;;;23.30;46.30;;;;;;5054087;28;20475;-49
2022/04/13 06:02:13;;;;;;;10.30;9.90;;;23.30;46.40;;;;;;5054542;28;20483;-52
2022/04/13 06:04:39;;;;;;;10.63;10.23;;;23.20;46.40;;;;;;5054280;28;20445;-50
2022/04/13 06:07:06;;;;;;;10.10;9.60;;;23.20;46.40;;;;;;5053763;28;20447;-50
2022/04/13 06:09:33;;;;;;;10.60;10.07;;;23.20;46.50;;;;;;5053861;28;20444;-51
2022/04/13 06:12:00;;;;;;;11.00;10.40;;;23.10;47.10;;;;;;5053771;28;20475;-54
2022/04/13 06:14:28;;;;;;;10.10;9.70;;;23.10;46.60;;;;;;5053729;28;20444;-52
2022/04/13 06:16:54;;;;;;;11.00;10.40;;;23.10;46.70;;;;;;5053704;28;20485;-51
2022/04/13 06:19:21;;;;;;;10.67;10.07;;;23.00;46.70;;;;;;5053610;28;20445;-51
2022/04/13 06:21:48;;;;;;;9.20;8.80;;;23.00;46.80;;;;;;5053414;28;20474;-50
2022/04/13 06:24:16;;;;;;;9.57;9.10;;;23.00;46.80;;;;;;5053534;28;20448;-56
2022/04/13 06:26:43;;;;;;;9.07;8.63;;;23.00;46.90;;;;;;5053332;28;20448;-50
2022/04/13 06:29:09;;;;;;;9.30;8.90;;;23.00;47.00;;;;;;5053469;28;20487;-52
2022/04/13 06:31:38;;;;;;;9.40;9.00;;;22.90;47.10;;;;;;5053261;28;20468;-50
2022/04/13 06:34:04;;;;;;;10.13;9.73;;;22.90;47.20;;;;;;5053189;28;20820;-50
2022/04/13 06:36:31;;;;;;;10.27;9.77;;;22.90;47.30;;;;;;5053165;28;20480;-50
2022/04/13 06:38:58;;;;;;;9.93;9.53;;;22.80;47.30;;;;;;5053131;28;20449;-49
2022/04/13 06:41:24;;;;;;;9.53;8.90;;;22.80;47.30;;;;;;5053196;28;20563;-50
2022/04/13 06:43:53;;;;;;;8.97;8.57;;;22.70;47.30;;;;;;5053248;28;20448;-50
2022/04/13 06:46:20;;;;;;;9.83;9.43;;;22.70;47.40;;;;;;5052891;28;20990;-51
2022/04/13 06:48:48;;;;;;;9.80;9.30;;;22.70;47.40;;;;;;5053076;28;20448;-51
2022/04/13 06:51:15;;;;;;;10.63;9.93;;;22.60;47.40;;;;;;5052985;28;20978;-49
2022/04/13 06:53:41;;;;;;;8.70;8.30;;;22.60;47.60;;;;;;5052873;28;20455;-50
2022/04/13 06:56:08;;;;;;;10.27;9.50;;;22.60;47.70;;;;;;5052684;28;20456;-52
2022/04/13 06:58:35;;;;;;;10.53;9.93;;;22.60;47.80;;;;;;5052968;28;20931;-50
2022/04/13 07:01:02;;;;;;;10.10;9.60;;;22.60;47.90;;;;;;5052553;28;20480;-52
2022/04/13 07:03:28;;;;;;;10.30;9.80;;;22.50;47.90;;;;;;5052943;28;20444;-50
2022/04/13 07:05:57;;;;;;;10.03;9.63;;;22.40;47.90;;;;;;5052666;28;20452;-50
2022/04/13 07:08:23;;;;;;;10.80;10.00;;;22.40;48.10;;;;;;5052596;28;20436;-52
2022/04/13 07:10:50;;;;;;;9.63;9.23;;;22.50;48.20;;;;;;5052667;28;20838;-51
2022/04/13 07:13:17;;;;;;;10.37;9.93;;;22.60;48.20;;;;;;5052733;28;20892;-50
2022/04/13 07:15:44;;;;;;;10.60;10.00;;;22.60;48.10;;;;;;5052356;28;20438;-52
2022/04/13 07:18:10;;;;;;;11.40;10.60;;;22.60;47.90;;;;;;5052480;28;20897;-52
2022/04/13 07:20:37;;;;;;;10.20;9.70;;;22.60;47.90;;;;;;5052418;28;20999;-52
2022/04/13 07:23:06;;;;;;;10.53;10.13;;;22.60;48.00;;;;;;5052391;28;20451;-52
2022/04/13 07:25:32;;;;;;;10.70;10.30;;;22.50;48.20;;;;;;5052473;28;20954;-52
2022/04/13 07:27:59;;;;;;;11.07;10.17;;;22.50;48.30;;;;;;5052340;28;20927;-51
2022/04/13 07:30:26;;;;;;;10.37;9.87;;;22.50;48.30;;;;;;5052212;28;20468;-51
2022/04/13 07:32:55;;;;;;;10.43;9.93;;;22.50;48.30;;;;;;5052505;28;20955;-56
2022/04/13 07:35:21;;;;;;;11.73;10.73;;;22.50;48.20;;;;;;5052394;28;20935;-56
2022/04/13 07:37:49;;;;;;;10.30;9.73;;;22.50;48.30;;;;;;5051992;28;21029;-57
2022/04/13 07:40:17;;;;;;;11.00;10.40;;;22.50;48.30;;;;;;5052027;28;20930;-56
2022/04/13 07:42:44;;;;;;;10.63;10.13;;;22.50;48.30;;;;;;5052096;28;20451;-56
2022/04/13 07:45:12;;;;;;;12.17;11.47;;;22.40;48.50;;;;;;5051325;28;20448;-52
2022/04/13 07:47:39;;;;;;;10.40;9.80;;;22.40;48.80;;;;;;5051750;28;20448;-55
2022/04/13 07:50:07;;;;;;;9.77;9.33;;;22.40;48.90;;;;;;5052057;28;20448;-50
2022/04/13 07:52:35;;;;;;;11.53;10.67;;;22.40;48.90;;;;;;5051954;28;20951;-50
2022/04/13 07:55:02;;;;;;;11.03;10.20;;;22.40;48.80;;;;;;5051924;28;20444;-51
2022/04/13 07:57:30;;;;;;;10.63;9.93;;;22.40;48.80;;;;;;5051271;28;20491;-51
2022/04/13 07:59:57;;;;;;;11.13;10.53;;;22.40;48.80;;;;;;5051857;28;20747;-51
2022/04/13 08:02:24;;;;;;;11.27;10.70;;;22.40;48.80;;;;;;5051616;28;21022;-52
2022/04/13 08:04:50;;;;;;;12.00;11.10;;;22.40;48.90;;;;;;5051490;28;20441;-53
2022/04/13 08:07:17;;;;;;;11.40;10.80;;;22.40;48.90;;;;;;5051418;28;20439;-50
2022/04/13 08:09:44;;;;;;;11.70;10.97;;;22.40;48.90;;;;;;5051548;28;20456;-50
2022/04/13 08:12:11;;;;;;;12.50;11.70;;;22.40;49.10;;;;;;5051498;28;20472;-51
2022/04/13 08:14:39;;;;;;;11.10;10.40;;;22.30;49.20;;;;;;5051638;28;20456;-51
2022/04/13 08:17:06;;;;;;;11.93;11.30;;;22.30;49.40;;;;;;5051172;28;20484;-51
2022/04/13 08:19:33;;;;;;;11.80;11.20;;;22.30;49.40;;;;;;5051404;28;20460;-53
2022/04/13 08:22:00;;;;;;;10.63;9.97;;;22.40;49.40;;;;;;5051323;28;20874;-53
2022/04/13 08:24:27;;;;;;;11.63;10.50;;;22.40;49.20;;;;;;5051396;28;20449;-51
2022/04/13 08:26:53;;;;;;;10.80;10.00;;;22.50;49.20;;;;;;5051096;28;20444;-51
2022/04/13 08:29:20;;;;;;;11.53;10.87;;;22.40;49.10;;;;;;5051386;28;20827;-54
2022/04/13 08:31:48;;;;;;;11.77;10.90;;;22.40;49.20;;;;;;5051328;28;20463;-50
2022/04/13 08:34:15;;;;;;;12.23;11.20;;;22.40;49.20;;;;;;5051298;28;20448;-51
2022/04/13 08:36:42;;;;;;;11.27;10.67;;;22.40;49.20;;;;;;5050935;28;20449;-52
2022/04/13 08:39:13;;;;;;;10.50;9.90;;;22.40;49.30;;;;;;5051442;28;20444;-51
2022/04/13 08:41:47;;;;;;;11.00;10.30;;;22.50;49.20;;;;;;5051178;28;20464;-51
2022/04/13 08:44:17;;;;;;;10.80;10.10;;;22.50;49.20;;;;;;5051360;28;20451;-51
2022/04/13 08:46:47;;;;;;;10.27;9.67;;;22.50;49.20;;;;;;5050917;28;20449;-52
2022/04/13 08:49:16;;;;;;;11.17;10.60;;;22.50;49.10;;;;;;5051109;28;20455;-50
2022/04/13 08:51:43;;;;;;;11.00;10.37;;;22.50;49.00;;;;;;5051052;28;20468;-50
2022/04/13 08:54:14;;;;;;;10.00;9.60;;;22.50;49.10;;;;;;5051215;28;20448;-51
2022/04/13 08:56:45;;;;;;;13.03;12.13;;;22.50;49.10;;;;;;5054181;28;20475;-53
2022/04/13 08:59:19;;;;;;;10.43;9.83;;;22.40;49.40;;;;;;5055359;28;20444;-51
2022/04/13 09:01:55;;;;;;;11.93;10.93;;;22.50;49.50;;;;;;5055001;28;20479;-54
2022/04/13 09:04:28;;;;;;;10.50;9.90;;;22.50;50.10;;;;;;5055028;28;20537;-50
2022/04/13 09:06:56;;;;;;;10.70;10.10;;;22.50;49.50;;;;;;5054954;28;20447;-52
2022/04/13 09:09:30;;;;;;;10.50;10.00;;;22.60;49.50;;;;;;5055039;28;20517;-55
2022/04/13 09:11:58;;;;;;;10.93;10.27;;;22.50;49.30;;;;;;5055137;28;20464;-52
2022/04/13 09:14:27;;;;;;;9.73;9.23;;;22.50;49.40;;;;;;5054785;28;20494;-52
2022/04/13 09:16:55;;;;;;;11.73;10.97;;;22.50;49.50;;;;;;5054396;28;20456;-53
2022/04/13 09:19:25;;;;;;;10.10;9.60;;;22.60;49.40;;;;;;5054658;28;20467;-50
2022/04/13 09:21:52;;;;;;;11.93;11.33;;;22.50;49.30;;;;;;5054678;28;20475;-52
2022/04/13 09:24:20;;;;;;;11.83;11.20;;;22.40;49.60;;;;;;5054626;28;20449;-52
2022/04/13 09:26:47;;;;;;;11.90;11.10;;;22.40;49.80;;;;;;5054636;28;20444;-52
2022/04/13 09:29:14;;;;;;;11.93;10.83;;;22.40;49.70;;;;;;5054677;28;20471;-51
2022/04/13 09:31:41;;;;;;;12.20;11.40;;;22.40;49.70;;;;;;5054621;28;20460;-51
2022/04/13 09:34:08;;;;;;;11.67;11.07;;;22.40;49.80;;;;;;5054483;28;20459;-57
2022/04/13 09:36:37;;;;;;;11.40;10.70;;;22.40;49.80;;;;;;5054241;28;21009;-51
2022/04/13 09:39:03;;;;;;;12.03;11.10;;;22.40;49.70;;;;;;5054699;28;20487;-51
2022/04/13 09:41:35;;;;;;;10.70;9.87;;;22.40;49.80;;;;;;5054148;28;20471;-51
2022/04/13 09:44:02;;;;;;;12.57;11.60;;;22.50;49.80;;;;;;5054434;28;20482;-51
2022/04/13 09:46:30;;;;;;;10.40;9.80;;;22.50;49.80;;;;;;5054066;28;20451;-50
2022/04/13 09:49:10;;;;;;;11.90;10.90;;;22.50;49.80;;;;;;5054114;28;20915;-50
2022/04/13 09:51:39;;;;;;;10.90;10.10;;;22.50;49.90;;;;;;5054017;28;20460;-52
2022/04/13 09:54:08;;;;;;;10.80;10.10;;;22.50;50.00;;;;;;5054080;28;20451;-52
2022/04/13 09:56:37;;;;;;;10.80;10.17;;;22.40;50.10;;;;;;5053396;28;20453;-49
2022/04/13 09:59:05;;;;;;;11.63;10.70;;;22.40;50.40;;;;;;5054046;28;20818;-52
2022/04/13 10:01:34;;;;;;;12.73;11.73;;;22.40;50.90;;;;;;5054412;28;20472;-50
2022/04/13 10:04:03;;;;;;;12.23;11.10;;;22.40;51.40;;;;;;5053978;28;20440;-50
2022/04/13 10:06:30;;;;;;;12.07;11.27;;;22.40;51.70;;;;;;5053157;28;20954;-51
2022/04/13 10:09:06;;;;;;;10.10;9.40;;;22.40;51.40;;;;;;5053615;28;20441;-50
2022/04/13 10:11:33;;;;;;;10.97;10.37;;;22.40;51.30;;;;;;5053938;28;20468;-51
2022/04/13 10:14:01;;;;;;;11.07;10.07;;;22.40;51.50;;;;;;5054038;28;20924;-50
2022/04/13 10:16:32;;;;;;;10.00;9.37;;;22.40;51.20;;;;;;5053520;28;20452;-53
2022/04/13 10:19:00;;;;;;;9.97;9.37;;;22.50;51.20;;;;;;5054041;28;20867;-48
2022/04/13 10:21:40;;;;;;;10.47;9.83;;;22.50;51.00;;;;;;5053613;28;20460;-50
2022/04/13 10:24:10;;;;;;;10.33;9.60;;;22.50;50.90;;;;;;5053364;28;20924;-51
2022/04/13 10:26:39;;;;;;;10.63;9.73;;;22.60;51.00;;;;;;5052982;28;20449;-56
2022/04/13 10:29:16;;;;;;;11.03;10.30;;;22.60;51.10;;;;;;5053687;28;20449;-52
2022/04/13 10:32:02;;;;;;;10.30;9.80;;;22.60;51.10;;;;;;5053430;28;20725;-54
2022/04/13 10:34:30;;;;;;;11.00;10.37;;;22.60;50.90;;;;;;5053389;28;20440;-51
2022/04/13 10:36:57;;;;;;;11.03;10.43;;;22.60;50.90;;;;;;5053136;28;20518;-55
2022/04/13 10:39:25;;;;;;;10.57;9.73;;;22.60;51.00;;;;;;5053331;28;20484;-50
2022/04/13 10:41:52;;;;;;;10.80;10.20;;;22.60;51.10;;;;;;5053076;28;20528;-50
2022/04/13 10:44:23;;;;;;;12.03;11.13;;;22.60;51.10;;;;;;5053263;28;20807;-50
2022/04/13 10:46:53;;;;;;;10.77;10.20;;;22.70;51.10;;;;;;5052859;28;20445;-53
2022/04/13 10:49:24;;;;;;;11.13;10.50;;;22.70;51.10;;;;;;5053222;28;20445;-50
2022/04/13 10:51:56;;;;;;;11.73;10.90;;;22.70;51.60;;;;;;5053007;28;20535;-51
2022/04/13 10:54:31;;;;;;;10.80;10.20;;;22.70;51.60;;;;;;5053042;28;20959;-51
2022/04/13 10:57:00;;;;;;;10.80;10.10;;;22.70;51.60;;;;;;5052842;28;20448;-54
2022/04/13 10:59:33;;;;;;;11.00;10.10;;;22.70;51.60;;;;;;5052975;28;20480;-49
2022/04/13 11:02:04;;;;;;;10.40;9.60;;;22.70;51.60;;;;;;5052860;28;20514;-49
2022/04/13 11:04:32;;;;;;;11.03;10.30;;;22.70;51.60;;;;;;5053161;28;20440;-51
2022/04/13 11:07:01;;;;;;;10.30;9.70;;;22.70;51.60;;;;;;5052557;28;20452;-50
2022/04/13 11:09:33;;;;;;;9.80;9.30;;;22.70;51.60;;;;;;5052879;28;20449;-51
2022/04/13 11:12:01;;;;;;;10.37;9.70;;;22.70;51.60;;;;;;5052628;28;20461;-49
2022/04/13 11:14:28;;;;;;;9.10;8.70;;;22.60;51.50;;;;;;5052542;28;20816;-52
2022/04/13 11:17:23;;;;;;;9.67;9.17;;;22.70;51.70;;;;;;5052288;28;20447;-49
2022/04/13 11:19:50;;;;;;;10.20;9.30;;;22.70;52.10;;;;;;5051576;28;20444;-51
2022/04/13 11:22:18;;;;;;;8.93;8.53;;;22.70;52.00;;;;;;5052484;28;20468;-53
2022/04/13 11:24:58;;;;;;;9.17;8.77;;;22.70;51.90;;;;;;5052738;28;20447;-50
2022/04/13 11:27:25;;;;;;;9.37;8.97;;;22.70;52.20;;;;;;5052185;28;20440;-49
2022/04/13 11:30:00;;;;;;;9.33;8.70;;;22.70;52.60;;;;;;5052296;28;20441;-53
2022/04/13 11:32:29;;;;;;;10.07;9.47;;;22.70;52.50;;;;;;5052179;28;20456;-49
2022/04/13 11:34:59;;;;;;;10.20;9.60;;;22.70;52.40;;;;;;5052239;28;20441;-51
2022/04/13 11:37:27;;;;;;;10.03;9.53;;;22.70;52.50;;;;;;5051902;28;20440;-50
2022/04/13 11:39:57;;;;;;;9.20;8.90;;;22.70;52.90;;;;;;5052104;28;20448;-50
2022/04/13 11:42:52;;;;;;;9.20;8.67;;;22.70;53.10;;;;;;5052062;28;21033;-51
2022/04/13 11:45:20;;;;;;;9.37;8.87;;;22.70;53.00;;;;;;5052054;28;20471;-50
2022/04/13 11:47:58;;;;;;;9.27;8.50;;;22.80;53.40;;;;;;5052101;28;20444;-48
2022/04/13 11:50:27;;;;;;;9.20;8.60;;;22.70;53.20;;;;;;5052071;28;20826;-52
2022/04/13 11:52:56;;;;;;;9.97;9.27;;;22.80;53.30;;;;;;5051862;28;20816;-49
2022/04/13 11:55:25;;;;;;;8.13;7.73;;;22.80;53.30;;;;;;5051751;28;20448;-48
2022/04/13 11:58:25;;;;;;;9.00;8.60;;;22.80;53.30;;;;;;5051691;28;20445;-55
2022/04/13 12:01:03;;;;;;;8.23;7.93;;;22.80;53.20;;;;;;5052151;28;20986;-51
2022/04/13 12:03:31;;;;;;;8.50;8.20;;;22.80;53.50;;;;;;5051826;28;20902;-49
2022/04/13 12:05:59;;;;;;;8.07;7.77;;;22.80;53.30;;;;;;5051851;28;20952;-51
2022/04/13 12:08:29;;;;;;;8.70;8.20;;;22.80;53.30;;;;;;5051563;28;20447;-50
2022/04/13 12:10:59;;;;;;;8.43;8.03;;;22.80;53.30;;;;;;5051702;28;20456;-54
2022/04/13 12:13:27;;;;;;;8.37;7.97;;;22.90;53.40;;;;;;5051482;28;20455;-53
2022/04/13 12:15:55;;;;;;;8.63;8.13;;;22.90;53.30;;;;;;5051352;28;20455;-49
2022/04/13 12:18:23;;;;;;;8.40;8.20;;;22.90;53.40;;;;;;5051309;28;20515;-51
2022/04/13 12:20:51;;;;;;;8.83;8.40;;;22.90;53.50;;;;;;5051218;28;21008;-50
2022/04/13 12:23:20;;;;;;;8.83;8.20;;;23.00;53.70;;;;;;5051538;28;20466;-49
2022/04/13 12:25:49;;;;;;;9.10;8.60;;;23.00;53.80;;;;;;5051329;28;20826;-51
2022/04/13 12:28:18;;;;;;;9.07;8.57;;;23.10;54.00;;;;;;5051575;28;20447;-51
2022/04/13 12:30:55;;;;;;;8.30;7.93;;;23.20;54.00;;;;;;5050909;28;20464;-51
2022/04/13 12:33:23;;;;;;;9.40;8.90;;;23.20;53.70;;;;;;5051401;28;20448;-51
2022/04/13 12:35:54;;;;;;;8.73;8.13;;;23.30;54.10;;;;;;5051092;28;20453;-51
2022/04/13 12:38:23;;;;;;;9.73;9.03;;;23.30;54.20;;;;;;5051236;28;20484;-49
2022/04/13 12:41:00;;;;;;;8.47;8.17;;;23.30;54.30;;;;;;5051177;28;20487;-51
2022/04/13 12:43:29;;;;;;;9.20;8.70;;;23.20;54.30;;;;;;5051222;28;20444;-50